METAR AND TAF INFORMATION
METAR FOR LGKR
ADDS - METARS form results

(2203 UTC 24 April 2019)
Data provider http://aviationweather.gov/metar/data/
 
METAR text: LGKR 242150Z 00000KT CAVOK 17/13 Q1021 NOSIG
Conditions at: LGKR (IOANNIS KAPODIST, GR) observed 2150 UTC 24 April 2019
Temperature: 17.0°C (63°F)
Dewpoint: 13.0°C (55°F) [RH = 77%]
Pressure (altimeter): 30.15 inches Hg (1021.0 mb)
Winds: calm
Visibility: 6 or more miles (10+ km)
Ceiling: ceiling and visibility are OK
Clouds: unknown
Weather: no significant weather observed at this time

METAR text: LGKR 242120Z 00000KT CAVOK 18/13 Q1021 NOSIG
Conditions at: LGKR (IOANNIS KAPODIST, GR) observed 2120 UTC 24 April 2019
Temperature: 18.0°C (64°F)
Dewpoint: 13.0°C (55°F) [RH = 73%]
Pressure (altimeter): 30.15 inches Hg (1021.0 mb)
Winds: calm
Visibility: 6 or more miles (10+ km)
Ceiling: ceiling and visibility are OK
Clouds: unknown
Weather: no significant weather observed at this time

Forecast for: LGKR (IOANNIS KAPODIST, GR)
Text: TAF LGKR 241700Z 2418/2518 15010KT 9999 FEW030 SCT080
Forecast period: 1800 UTC 24 April 2019 to 1800 UTC 25 April 2019
Forecast type: FROM: standard forecast or significant change
Winds: from the SSE (150 degrees) at 12 MPH (10 knots; 5.1 m/s)
Visibility: 6 or more miles 10+ km)
Ceiling: at least 12,000 feet AGL
Clouds: few clouds at 3000 feet AGL
scattered clouds at 8000 feet AGL
Weather: no significant weather forecast for this period

 AIRPORT MAP

 RUNWAY INFORMATION
Runway 17 Runway length 7792 ft Runway width 148 ft
Runway elevation 5 ft Runway displaced threshold 1348 ft Runway heading 169
Runway 35 Runway length 7792 ft Runway width 148 ft
Runway elevation 5 ft Runway displaced threshold 213 ft Runway heading 349

 AIRPORT FREQUENCIES
Type A/G Name KERKIRA RD Frequency 563.7 MHZ
Type APP Name KERKIRA AP Frequency 118.075 MHZ
Type ATIS Name ATIS Frequency 126.35 MHZ
Type TWR Name KERKIRA TW Frequency 120.85 MHZ

 AIRPORT NEAR NAVIGATION AIDS
Type VOR-DME Name Garitsa Frequency 108800 KHZ
Type NDB Name Kerkira Frequency 403 KHZ
Type VOR-DME Name Kerkira Frequency 114700 KHZ



Air Greece virtual AIrline - All rights reserved 2018 - Powered by Virtual Airlines Manager [v2.6.2]